Time;durP1;ratioP1;P1;durP2;ratioP2;P2;SDS_P1;SDS_P2;PMS_P1;PMS_P2;Temp;Humidity;BMP_temperature;BMP_pressure;BME280_temperature;BME280_humidity;BME280_pressure;Samples;Min_cycle;Max_cycle;Signal;HPM_P1;HPM_P2
2024/01/07 00:00:27;;;;;;;21.03;11.00;;;;;;;5.37;100.00;97557.59;5076793;28;20221;-80
2024/01/07 00:02:54;;;;;;;16.97;9.90;;;;;;;5.39;100.00;97556.56;5076583;28;20243;-80
2024/01/07 00:05:20;;;;;;;20.87;10.63;;;;;;;5.37;100.00;97555.81;5076848;28;20242;-80
2024/01/07 00:07:48;;;;;;;19.80;11.13;;;;;;;5.44;100.00;97565.00;5076604;28;20256;-80
2024/01/07 00:10:14;;;;;;;19.07;11.50;;;;;;;5.41;100.00;97565.19;5076807;28;20207;-80
2024/01/07 00:12:41;;;;;;;18.07;9.77;;;;;;;5.36;100.00;97561.97;5076737;28;20286;-80
2024/01/07 00:15:08;;;;;;;18.17;10.20;;;;;;;5.37;100.00;97560.22;5076801;28;20268;-80
2024/01/07 00:17:36;;;;;;;18.27;10.57;;;;;;;5.42;100.00;97568.63;5076621;28;20266;-80
2024/01/07 00:20:02;;;;;;;17.87;10.77;;;;;;;5.34;100.00;97566.47;5076842;28;20259;-80
2024/01/07 00:22:29;;;;;;;19.57;10.87;;;;;;;5.27;100.00;97567.75;5076379;28;20222;-81
2024/01/07 00:24:56;;;;;;;16.80;9.40;;;;;;;5.31;100.00;97556.16;5076483;28;20221;-80
2024/01/07 00:27:22;;;;;;;18.77;10.53;;;;;;;5.33;100.00;97559.56;5076319;28;20246;-80
2024/01/07 00:29:48;;;;;;;21.00;10.50;;;;;;;5.37;100.00;97563.66;5076736;28;20267;-80
2024/01/07 00:32:15;;;;;;;19.20;10.37;;;;;;;5.29;100.00;97559.78;5076578;28;20221;-80
2024/01/07 00:34:43;;;;;;;19.83;11.20;;;;;;;5.28;100.00;97558.97;5076498;28;20257;-80
2024/01/07 00:37:09;;;;;;;17.67;9.87;;;;;;;5.30;100.00;97572.81;5076447;28;20201;-80
2024/01/07 00:39:36;;;;;;;19.30;10.53;;;;;;;5.36;100.00;97561.97;5076571;28;20195;-80
2024/01/07 00:42:02;;;;;;;16.87;9.50;;;;;;;5.30;100.00;97567.56;5076499;28;20238;-80
2024/01/07 00:44:29;;;;;;;18.57;10.03;;;;;;;5.34;100.00;97563.84;5076518;28;20195;-80
2024/01/07 00:46:55;;;;;;;18.70;10.90;;;;;;;5.35;100.00;97562.91;5076408;28;20256;-80
2024/01/07 00:49:22;;;;;;;18.73;10.40;;;;;;;5.29;100.00;97562.41;5076125;28;20193;-80
2024/01/07 00:51:49;;;;;;;22.07;10.13;;;;;;;5.32;100.00;97567.50;5076334;28;20213;-80
2024/01/07 00:54:16;;;;;;;17.53;9.97;;;;;;;5.44;100.00;97574.66;5076269;28;20206;-80
2024/01/07 00:56:42;;;;;;;18.53;9.70;;;;;;;5.38;100.00;97565.34;5076345;28;20254;-80
2024/01/07 00:59:09;;;;;;;16.97;9.90;;;;;;;5.37;100.00;97570.69;5076561;28;20258;-80
2024/01/07 01:01:35;;;;;;;17.43;10.10;;;;;;;5.41;100.00;97570.44;5074077;28;20252;-80
2024/01/07 01:04:02;;;;;;;17.43;10.03;;;;;;;5.46;100.00;97568.38;5076432;28;20290;-80
2024/01/07 01:06:28;;;;;;;16.87;9.77;;;;;;;5.39;100.00;97566.19;5079941;28;20258;-80
2024/01/07 01:08:56;;;;;;;18.30;10.67;;;;;;;5.38;100.00;97569.75;5079994;28;20246;-80
2024/01/07 01:11:22;;;;;;;20.43;10.83;;;;;;;5.36;100.00;97572.47;5079893;28;20282;-80
2024/01/07 01:13:49;;;;;;;16.97;9.40;;;;;;;5.38;100.00;97575.81;5075029;28;20291;-80
2024/01/07 01:16:15;;;;;;;18.37;10.10;;;;;;;5.34;100.00;97573.47;5079788;28;20255;-80
2024/01/07 01:18:42;;;;;;;15.53;9.63;;;;;;;5.35;100.00;97576.03;5079607;28;20192;-80
2024/01/07 01:21:08;;;;;;;17.07;10.00;;;;;;;5.37;100.00;97578.56;5079731;28;20223;-80
2024/01/07 01:23:35;;;;;;;18.33;10.23;;;;;;;5.31;100.00;97582.34;5079548;28;20230;-79
2024/01/07 01:26:03;;;;;;;15.67;10.10;;;;;;;5.31;100.00;97584.16;5079603;28;20194;-80
2024/01/07 01:28:29;;;;;;;16.73;9.63;;;;;;;5.34;100.00;97589.19;5079600;28;20215;-80
2024/01/07 01:30:56;;;;;;;20.77;10.33;;;;;;;5.36;100.00;97582.94;5079518;28;20256;-80
2024/01/07 01:33:22;;;;;;;18.20;10.40;;;;;;;5.41;100.00;97585.28;5079350;28;20196;-80
2024/01/07 01:35:49;;;;;;;18.87;10.87;;;;;;;5.44;100.00;97585.97;5071377;28;20211;-81
2024/01/07 01:38:15;;;;;;;20.63;10.80;;;;;;;5.42;100.00;97589.59;5071267;28;20211;-80
2024/01/07 01:40:42;;;;;;;19.67;10.67;;;;;;;5.48;100.00;97589.25;5079307;28;20202;-80
2024/01/07 01:43:10;;;;;;;18.73;10.07;;;;;;;5.39;100.00;97588.03;5078988;28;20243;-80
2024/01/07 01:45:36;;;;;;;20.93;10.80;;;;;;;5.48;100.00;97594.47;5078863;28;20196;-79
2024/01/07 01:48:03;;;;;;;19.63;10.07;;;;;;;5.42;100.00;97598.31;5078559;28;20266;-80
2024/01/07 01:50:30;;;;;;;21.80;11.53;;;;;;;5.42;100.00;97587.84;5077874;28;20275;-79
2024/01/07 01:52:57;;;;;;;29.67;12.33;;;;;;;5.42;100.00;97590.44;5067876;28;20237;-80
2024/01/07 01:55:24;;;;;;;21.93;11.40;;;;;;;5.31;100.00;97587.59;5070772;28;20221;-80
2024/01/07 01:57:52;;;;;;;18.70;11.67;;;;;;;5.47;100.00;97592.81;5075156;28;20257;-80
2024/01/07 02:00:20;;;;;;;19.93;11.00;;;;;;;5.49;100.00;97591.78;5078451;28;20271;-79
2024/01/07 02:02:47;;;;;;;22.67;11.27;;;;;;;5.48;100.00;97592.72;5078254;28;20227;-79
2024/01/07 02:05:14;;;;;;;19.93;11.37;;;;;;;5.44;100.00;97599.06;5077244;28;20231;-79
2024/01/07 02:07:40;;;;;;;24.07;11.80;;;;;;;5.38;100.00;97591.56;5070899;28;20267;-80
2024/01/07 02:10:07;;;;;;;21.60;11.83;;;;;;;5.37;100.00;97589.88;5078372;28;20212;-79
2024/01/07 02:12:34;;;;;;;22.87;12.10;;;;;;;5.40;100.00;97588.84;5078198;28;20301;-79
2024/01/07 02:15:01;;;;;;;19.30;11.30;;;;;;;5.35;100.00;97596.97;5077923;28;20193;-80
2024/01/07 02:17:28;;;;;;;22.53;12.83;;;;;;;5.32;100.00;97596.31;5076300;28;20218;-80
2024/01/07 02:19:55;;;;;;;20.50;12.50;;;;;;;5.32;100.00;97597.13;5078253;28;20296;-79
2024/01/07 02:22:21;;;;;;;22.73;12.70;;;;;;;5.33;100.00;97598.00;5078167;28;20224;-79
2024/01/07 02:24:49;;;;;;;24.00;12.70;;;;;;;5.34;100.00;97600.53;5078033;28;20223;-80
2024/01/07 02:27:16;;;;;;;26.13;12.63;;;;;;;5.38;100.00;97591.56;5078386;28;20207;-79
2024/01/07 02:29:42;;;;;;;23.83;12.80;;;;;;;5.35;100.00;97596.97;5078398;28;20195;-79
2024/01/07 02:32:09;;;;;;;23.03;12.27;;;;;;;5.30;100.00;97596.38;5078402;28;20282;-79
2024/01/07 02:34:35;;;;;;;22.93;12.67;;;;;;;5.32;100.00;97591.91;5078350;28;20274;-80
2024/01/07 02:37:02;;;;;;;23.40;12.53;;;;;;;5.23;100.00;97597.66;5078191;28;20281;-79
2024/01/07 02:39:28;;;;;;;21.63;11.40;;;;;;;5.26;100.00;97594.03;5078270;28;20195;-81
2024/01/07 02:41:56;;;;;;;25.77;13.27;;;;;;;5.25;100.00;97587.94;5078240;28;20214;-78
2024/01/07 02:44:22;;;;;;;23.00;12.87;;;;;;;5.25;100.00;97595.81;5077831;28;20283;-79
2024/01/07 02:46:49;;;;;;;23.20;12.40;;;;;;;5.24;100.00;97596.75;5077977;28;20260;-80
2024/01/07 02:49:15;;;;;;;25.37;14.03;;;;;;;5.15;100.00;97597.28;5078104;28;20210;-79
2024/01/07 02:51:42;;;;;;;24.33;13.33;;;;;;;5.25;100.00;97592.34;5078093;28;20215;-79
2024/01/07 02:54:09;;;;;;;20.90;12.57;;;;;;;5.20;100.00;97597.84;5071530;28;20237;-80
2024/01/07 02:56:35;;;;;;;21.57;12.80;;;;;;;5.24;100.00;97588.88;5066852;28;20221;-80
2024/01/07 02:59:03;;;;;;;22.00;12.30;;;;;;;5.29;100.00;97591.22;5077920;28;20189;-80
2024/01/07 03:01:30;;;;;;;21.17;12.20;;;;;;;5.27;100.00;97593.97;5077659;28;20297;-79
2024/01/07 03:03:56;;;;;;;24.10;12.63;;;;;;;5.28;100.00;97597.41;5077676;28;20295;-80
2024/01/07 03:06:23;;;;;;;21.10;12.37;;;;;;;5.29;100.00;97602.56;5077645;28;20190;-79
2024/01/07 03:08:49;;;;;;;18.87;12.00;;;;;;;5.23;100.00;97599.44;5077722;28;20195;-79
2024/01/07 03:11:16;;;;;;;23.60;12.03;;;;;;;5.25;100.00;97601.03;5077642;28;20206;-79
2024/01/07 03:13:42;;;;;;;24.17;13.13;;;;;;;5.33;100.00;97605.84;5077180;28;20649;-79
2024/01/07 03:16:19;;;;;;;22.20;11.53;;;;;;;5.26;100.00;97597.47;5077380;28;20248;-79
2024/01/07 03:18:46;;;;;;;24.07;12.97;;;;;;;5.32;100.00;97604.16;5074002;28;20217;-80
2024/01/07 03:21:18;;;;;;;20.30;11.90;;;;;;;5.26;100.00;97607.13;5068255;28;20230;-79
2024/01/07 03:23:44;;;;;;;24.40;13.10;;;;;;;5.24;100.00;97604.59;5072222;28;20206;-79
2024/01/07 03:26:11;;;;;;;20.67;12.03;;;;;;;5.27;100.00;97612.31;5077086;28;20225;-79
2024/01/07 03:28:37;;;;;;;21.83;12.33;;;;;;;5.25;100.00;97613.31;5077012;28;20214;-79
2024/01/07 03:31:08;;;;;;;19.70;10.93;;;;;;;5.23;100.00;97607.28;5077223;28;20190;-79
2024/01/07 03:33:35;;;;;;;18.63;11.50;;;;;;;5.27;100.00;97614.06;5076931;28;20191;-79
2024/01/07 03:36:06;;;;;;;20.33;11.87;;;;;;;5.17;100.00;97616.34;5076779;28;20193;-80
2024/01/07 03:38:33;;;;;;;21.03;11.10;;;;;;;5.15;100.00;97620.84;5077005;28;20258;-80
2024/01/07 03:40:59;;;;;;;23.63;12.57;;;;;;;4.99;100.00;97617.38;5076851;28;20197;-80
2024/01/07 03:43:26;;;;;;;20.87;11.87;;;;;;;4.87;100.00;97623.28;5077119;28;20230;-80
2024/01/07 03:45:52;;;;;;;20.47;12.43;;;;;;;4.85;100.00;97619.06;5076915;28;20185;-80
2024/01/07 03:48:19;;;;;;;20.33;11.70;;;;;;;4.82;100.00;97622.69;5076880;28;20259;-80
2024/01/07 03:50:47;;;;;;;20.70;11.53;;;;;;;4.80;100.00;97615.84;5076811;28;20247;-80
2024/01/07 03:53:13;;;;;;;21.43;11.77;;;;;;;4.76;100.00;97616.97;5076480;28;20209;-80
2024/01/07 03:55:40;;;;;;;20.93;12.13;;;;;;;4.81;100.00;97618.38;5076492;28;20230;-80
2024/01/07 03:58:07;;;;;;;19.80;11.63;;;;;;;4.80;100.00;97618.47;5077020;28;20278;-80
2024/01/07 04:00:33;;;;;;;22.73;11.43;;;;;;;4.71;100.00;97618.97;5076983;28;20186;-80
2024/01/07 04:03:00;;;;;;;20.73;12.50;;;;;;;4.71;100.00;97622.41;5076811;28;20238;-80
2024/01/07 04:05:26;;;;;;;21.97;10.93;;;;;;;4.64;100.00;97621.06;5076466;28;20235;-80
2024/01/07 04:07:54;;;;;;;23.60;12.40;;;;;;;4.70;100.00;97617.28;5076670;28;20237;-80
2024/01/07 04:10:21;;;;;;;23.07;12.73;;;;;;;4.58;100.00;97629.22;5076151;28;20253;-80
2024/01/07 04:12:48;;;;;;;20.43;10.90;;;;;;;4.65;100.00;97630.59;5076409;28;20223;-80
2024/01/07 04:15:14;;;;;;;20.33;11.50;;;;;;;4.67;100.00;97633.13;5076561;28;20205;-80
2024/01/07 04:17:41;;;;;;;20.70;12.23;;;;;;;4.56;100.00;97625.00;5076466;28;20206;-80
2024/01/07 04:20:08;;;;;;;18.87;10.63;;;;;;;4.59;100.00;97641.38;5075553;28;20269;-80
2024/01/07 04:22:35;;;;;;;18.03;11.00;;;;;;;4.68;100.00;97629.59;5074502;28;20227;-80
2024/01/07 04:25:05;;;;;;;22.27;11.27;;;;;;;4.67;100.00;97634.00;5075938;28;20229;-79
2024/01/07 04:27:31;;;;;;;23.17;10.60;;;;;;;4.72;100.00;97642.44;5076209;28;20193;-79
2024/01/07 04:29:58;;;;;;;18.00;9.97;;;;;;;4.68;100.00;97632.22;5076122;28;20195;-79
2024/01/07 04:32:24;;;;;;;20.13;10.47;;;;;;;4.70;100.00;97644.28;5076493;28;20249;-79
2024/01/07 04:34:51;;;;;;;17.63;9.47;;;;;;;4.70;100.00;97635.59;5076414;28;20206;-79
2024/01/07 04:37:17;;;;;;;17.93;10.13;;;;;;;4.73;100.00;97649.38;5076253;28;20189;-80
2024/01/07 04:39:44;;;;;;;17.10;9.40;;;;;;;4.71;100.00;97645.97;5077308;28;20204;-80
2024/01/07 04:42:12;;;;;;;16.90;9.70;;;;;;;4.75;100.00;97649.25;5078683;28;20281;-79
2024/01/07 04:44:38;;;;;;;18.10;9.67;;;;;;;4.69;100.00;97652.22;5079282;28;20218;-79
2024/01/07 04:47:05;;;;;;;17.67;9.60;;;;;;;4.64;100.00;97649.03;5078509;28;20264;-79
2024/01/07 04:49:31;;;;;;;17.63;8.90;;;;;;;4.52;100.00;97655.72;5079372;28;20207;-79
2024/01/07 04:51:58;;;;;;;17.60;8.63;;;;;;;4.52;100.00;97647.88;5080169;28;20213;-79
2024/01/07 04:54:24;;;;;;;19.00;9.70;;;;;;;4.52;100.00;97653.13;5080146;28;20195;-80
2024/01/07 04:56:51;;;;;;;14.73;8.57;;;;;;;4.45;100.00;97658.78;5080151;28;20193;-79
2024/01/07 04:59:18;;;;;;;14.17;7.83;;;;;;;4.57;100.00;97663.34;5076380;28;20213;-81
2024/01/07 05:01:45;;;;;;;17.50;8.53;;;;;;;4.48;100.00;97663.84;5076766;28;20235;-80
2024/01/07 05:04:11;;;;;;;20.20;9.00;;;;;;;4.57;100.00;97669.41;5079898;28;20255;-79
2024/01/07 05:06:38;;;;;;;17.37;8.77;;;;;;;4.54;100.00;97663.50;5079539;28;20194;-79
2024/01/07 05:09:04;;;;;;;16.70;9.47;;;;;;;4.48;100.00;97664.69;5078545;28;20642;-80
2024/01/07 05:11:31;;;;;;;18.60;8.97;;;;;;;4.49;100.00;97666.38;5073353;28;20229;-80
2024/01/07 05:13:57;;;;;;;17.70;9.53;;;;;;;4.51;100.00;97667.13;5075827;28;20206;-79
2024/01/07 05:16:25;;;;;;;15.73;8.33;;;;;;;4.47;100.00;97668.19;5079702;28;20191;-79
2024/01/07 05:18:51;;;;;;;15.50;8.07;;;;;;;4.41;100.00;97663.28;5079664;28;20194;-79
2024/01/07 05:21:19;;;;;;;18.43;8.77;;;;;;;4.50;100.00;97668.06;5079498;28;20286;-79
2024/01/07 05:23:45;;;;;;;16.83;8.77;;;;;;;4.47;100.00;97670.81;5079357;28;20216;-79
2024/01/07 05:26:12;;;;;;;12.97;7.70;;;;;;;4.44;100.00;97673.59;5079691;28;20196;-79
2024/01/07 05:28:38;;;;;;;16.50;8.50;;;;;;;4.40;100.00;97669.44;5079523;28;20195;-80
2024/01/07 05:31:05;;;;;;;17.10;8.83;;;;;;;4.39;100.00;97675.63;5079432;28;20185;-80
2024/01/07 05:33:33;;;;;;;15.10;8.53;;;;;;;4.38;100.00;97678.31;5079368;28;20193;-80
2024/01/07 05:36:00;;;;;;;16.07;8.40;;;;;;;4.49;100.00;97676.84;5078695;28;20194;-82
2024/01/07 05:38:26;;;;;;;15.87;8.80;;;;;;;4.42;100.00;97680.72;5079214;28;20268;-80
2024/01/07 05:40:53;;;;;;;17.60;8.17;;;;;;;4.42;100.00;97691.16;5079039;28;20303;-80
2024/01/07 05:43:19;;;;;;;17.57;9.30;;;;;;;4.42;100.00;97685.94;5078917;28;20193;-80
2024/01/07 05:45:46;;;;;;;16.57;9.10;;;;;;;4.42;100.00;97690.31;5078746;28;20221;-80
2024/01/07 05:48:12;;;;;;;15.47;8.40;;;;;;;4.42;100.00;97685.94;5078664;28;20199;-80
2024/01/07 05:50:40;;;;;;;14.87;8.23;;;;;;;4.43;100.00;97685.00;5078883;28;20268;-80
2024/01/07 05:53:06;;;;;;;14.37;8.10;;;;;;;4.48;100.00;97690.84;5078680;28;20285;-80
2024/01/07 05:55:33;;;;;;;15.17;7.53;;;;;;;4.38;100.00;97697.47;5076881;28;20202;-80
2024/01/07 05:57:59;;;;;;;15.77;8.07;;;;;;;4.32;100.00;97700.41;5078582;28;20198;-80
2024/01/07 06:00:26;;;;;;;15.97;8.07;;;;;;;4.42;100.00;97701.63;5078624;28;20193;-80
2024/01/07 06:02:52;;;;;;;14.10;7.97;;;;;;;4.42;100.00;97712.09;5076944;28;20234;-80
2024/01/07 06:05:18;;;;;;;16.87;8.70;;;;;;;4.38;100.00;97714.94;5075397;28;20694;-80
2024/01/07 06:07:46;;;;;;;12.60;7.60;;;;;;;4.42;100.00;97706.88;5069067;28;20585;-80
2024/01/07 06:10:13;;;;;;;16.63;8.37;;;;;;;4.45;100.00;97711.94;5064064;28;20209;-80
2024/01/07 06:12:39;;;;;;;16.60;8.37;;;;;;;4.39;100.00;97701.78;5062962;28;20231;-80
2024/01/07 06:15:06;;;;;;;13.83;7.90;;;;;;;4.36;100.00;97711.56;5063268;28;20209;-80
2024/01/07 06:17:33;;;;;;;13.60;7.77;;;;;;;4.42;100.00;97716.47;5062327;28;20209;-80
2024/01/07 06:20:00;;;;;;;15.40;8.40;;;;;;;4.39;100.00;97722.72;5063419;28;20241;-80
2024/01/07 06:22:26;;;;;;;14.37;8.37;;;;;;;4.33;100.00;97722.19;5062567;28;20597;-80
2024/01/07 06:24:54;;;;;;;13.83;8.37;;;;;;;4.33;100.00;97730.88;5062425;28;20604;-80
2024/01/07 06:27:21;;;;;;;14.60;8.70;;;;;;;4.38;100.00;97728.00;5061333;28;20221;-80
2024/01/07 06:29:47;;;;;;;13.73;8.00;;;;;;;4.37;100.00;97721.94;5061460;28;20240;-80
2024/01/07 06:32:14;;;;;;;12.93;7.90;;;;;;;4.33;100.00;97732.66;5061395;28;20232;-80
2024/01/07 06:34:41;;;;;;;14.03;8.77;;;;;;;4.40;100.00;97728.78;5062154;28;20203;-80
2024/01/07 06:37:10;;;;;;;12.77;7.67;;;;;;;4.33;100.00;97732.66;5062056;28;20665;-80
2024/01/07 06:39:37;;;;;;;11.60;7.87;;;;;;;4.31;100.00;97735.34;5062585;28;20236;-80
2024/01/07 06:42:06;;;;;;;11.83;7.73;;;;;;;4.37;100.00;97728.94;5062242;28;20261;-80
2024/01/07 06:44:32;;;;;;;13.57;8.30;;;;;;;4.32;100.00;97742.25;5060713;28;20233;-80
2024/01/07 06:46:59;;;;;;;11.20;7.53;;;;;;;4.36;100.00;97743.81;5060938;28;20221;-80
2024/01/07 06:49:25;;;;;;;12.67;7.90;;;;;;;4.38;100.00;97747.19;5061491;28;20211;-80
2024/01/07 06:51:52;;;;;;;10.53;7.30;;;;;;;4.36;100.00;97746.44;5061686;28;20227;-80
2024/01/07 06:54:18;;;;;;;10.30;6.93;;;;;;;4.33;100.00;97746.56;5061786;28;20214;-80
2024/01/07 06:56:45;;;;;;;9.00;6.50;;;;;;;4.34;100.00;97745.63;5060493;28;20221;-80
2024/01/07 06:59:13;;;;;;;9.53;6.27;;;;;;;4.37;100.00;97750.72;5060139;28;20212;-80
2024/01/07 07:01:39;;;;;;;10.87;6.23;;;;;;;4.37;100.00;97740.25;5058898;28;20242;-80
2024/01/07 07:04:05;;;;;;;8.87;6.27;;;;;;;4.37;100.00;97748.09;5059078;28;20338;-80
2024/01/07 07:06:32;;;;;;;9.00;5.83;;;;;;;4.40;100.00;97750.56;5059699;28;20209;-80
2024/01/07 07:08:58;;;;;;;9.40;5.73;;;;;;;4.36;100.00;97749.03;5060503;28;20213;-80
2024/01/07 07:11:25;;;;;;;8.10;6.00;;;;;;;4.36;100.00;97749.03;5061098;28;20230;-80
2024/01/07 07:13:51;;;;;;;10.87;6.00;;;;;;;4.32;100.00;97757.94;5060157;28;20222;-80
2024/01/07 07:16:19;;;;;;;6.27;4.73;;;;;;;4.34;100.00;97760.50;5060122;28;20221;-80
2024/01/07 07:18:46;;;;;;;9.17;5.10;;;;;;;4.36;100.00;97756.88;5059236;28;20231;-80
2024/01/07 07:21:12;;;;;;;8.60;5.60;;;;;;;4.37;100.00;97765.56;5059925;28;20719;-80
2024/01/07 07:23:38;;;;;;;7.03;5.03;;;;;;;4.37;100.00;97762.94;5058785;28;20219;-79
2024/01/07 07:26:06;;;;;;;8.57;5.40;;;;;;;4.38;100.00;97773.34;5058513;28;20232;-80
2024/01/07 07:28:33;;;;;;;7.53;4.37;;;;;;;4.35;100.00;97778.72;5057303;28;20245;-80
2024/01/07 07:30:59;;;;;;;8.37;5.00;;;;;;;4.32;100.00;97765.81;5060125;28;20213;-80
2024/01/07 07:33:27;;;;;;;8.00;5.27;;;;;;;4.27;100.00;97778.25;5059538;28;20217;-81
2024/01/07 07:35:54;;;;;;;8.33;4.73;;;;;;;4.24;100.00;97786.28;5058854;28;20563;-80
2024/01/07 07:38:20;;;;;;;8.90;4.90;;;;;;;4.26;100.00;97784.41;5059119;28;20264;-79
2024/01/07 07:40:52;;;;;;;6.63;4.53;;;;;;;4.28;100.00;97795.63;5059221;28;20208;-80
2024/01/07 07:43:19;;;;;;;6.83;4.63;;;;;;;4.25;100.00;97800.19;5060866;28;20242;-79
2024/01/07 07:45:45;;;;;;;6.30;4.33;;;;;;;4.24;100.00;97791.50;5058975;28;20408;-80
2024/01/07 07:48:12;;;;;;;7.07;4.23;;;;;;;4.13;100.00;97793.78;5059276;28;20221;-80
2024/01/07 07:50:40;;;;;;;6.60;4.60;;;;;;;4.21;100.00;97796.88;5060310;28;20225;-80
2024/01/07 07:53:07;;;;;;;6.80;4.73;;;;;;;4.13;100.00;97804.25;5060528;28;20229;-80
2024/01/07 07:55:33;;;;;;;7.00;4.73;;;;;;;4.10;100.00;97801.78;5058758;28;20556;-79
2024/01/07 07:58:00;;;;;;;7.10;5.23;;;;;;;4.17;100.00;97811.00;5055592;28;20216;-79
2024/01/07 08:00:26;;;;;;;7.80;4.57;;;;;;;4.12;100.00;97813.03;5057202;28;20219;-79
2024/01/07 08:02:52;;;;;;;7.63;4.40;;;;;;;4.11;100.00;97802.63;5057077;28;20260;-78
2024/01/07 08:05:19;;;;;;;7.40;4.40;;;;;;;4.10;100.00;97809.63;5056715;28;20231;-77
2024/01/07 08:07:47;;;;;;;6.60;4.70;;;;;;;4.12;100.00;97807.81;5057239;28;20237;-81
2024/01/07 08:10:13;;;;;;;6.90;4.17;;;;;;;4.07;100.00;97799.31;5057090;28;20200;-79
2024/01/07 08:12:40;;;;;;;6.33;4.27;;;;;;;4.18;100.00;97812.72;5056704;28;20229;-79
2024/01/07 08:15:08;;;;;;;6.33;4.20;;;;;;;4.13;100.00;97812.09;5058429;28;20734;-79
2024/01/07 08:17:35;;;;;;;6.00;4.17;;;;;;;4.14;100.00;97821.63;5058594;28;20222;-79
2024/01/07 08:20:03;;;;;;;5.97;4.20;;;;;;;4.12;100.00;97828.72;5058862;28;20284;-79
2024/01/07 08:22:30;;;;;;;5.97;4.17;;;;;;;4.07;100.00;97825.47;5058377;28;20294;-79
2024/01/07 08:24:58;;;;;;;7.33;4.37;;;;;;;4.08;100.00;97826.31;5058177;28;20232;-79
2024/01/07 08:27:24;;;;;;;6.53;4.70;;;;;;;4.04;100.00;97836.06;5059159;28;20672;-80
2024/01/07 08:29:51;;;;;;;6.73;4.73;;;;;;;4.06;100.00;97838.63;5059989;28;20209;-80
2024/01/07 08:32:17;;;;;;;7.57;4.90;;;;;;;4.06;100.00;97833.38;5059980;28;20228;-80
2024/01/07 08:34:44;;;;;;;8.93;4.80;;;;;;;4.02;100.00;97827.47;5059447;28;20210;-80
2024/01/07 08:37:10;;;;;;;8.37;4.50;;;;;;;4.02;100.00;97829.22;5059868;28;20236;-80
2024/01/07 08:39:37;;;;;;;8.97;5.30;;;;;;;4.02;100.00;97843.16;5059771;28;20211;-80
2024/01/07 08:42:05;;;;;;;7.60;4.50;;;;;;;3.93;100.00;97824.44;5058830;28;20233;-80
2024/01/07 08:44:32;;;;;;;5.80;4.27;;;;;;;4.04;100.00;97836.06;5058796;28;20228;-79
2024/01/07 08:47:00;;;;;;;8.00;3.57;;;;;;;4.05;100.00;97837.78;5059677;28;20217;-79
2024/01/07 08:49:26;;;;;;;4.77;3.70;;;;;;;4.04;100.00;97824.78;5060075;28;20210;-80
2024/01/07 08:51:53;;;;;;;5.50;3.40;;;;;;;3.98;100.00;97814.63;5063344;28;20231;-81
2024/01/07 08:54:19;;;;;;;5.53;3.50;;;;;;;4.05;99.83;97819.47;5060446;28;20212;-80
2024/01/07 08:56:46;;;;;;;5.27;3.13;;;;;;;4.06;98.76;97822.91;5060701;28;20204;-80
2024/01/07 08:59:13;;;;;;;5.53;3.20;;;;;;;4.07;98.54;97815.00;5062190;28;20213;-80
2024/01/07 09:01:40;;;;;;;3.97;3.00;;;;;;;4.08;98.82;97829.78;5059698;28;20240;-80
2024/01/07 09:04:06;;;;;;;3.93;2.67;;;;;;;4.12;98.27;97820.00;5061088;28;20212;-81
2024/01/07 09:06:33;;;;;;;5.13;2.80;;;;;;;4.11;97.89;97832.25;5062726;28;20224;-81
2024/01/07 09:08:59;;;;;;;5.70;2.93;;;;;;;4.18;97.18;97838.88;5061512;28;20205;-81
2024/01/07 09:11:26;;;;;;;4.03;2.63;;;;;;;4.16;97.19;97840.69;5061443;28;20226;-82
2024/01/07 09:13:52;;;;;;;4.90;3.40;;;;;;;4.14;97.08;97846.94;5061006;28;20204;-80
2024/01/07 09:16:20;;;;;;;6.47;3.20;;;;;;;4.12;96.71;97848.78;5062544;28;20314;-80
2024/01/07 09:18:47;;;;;;;5.07;3.53;;;;;;;4.10;96.84;97851.47;5061201;28;20932;-80
2024/01/07 09:21:14;;;;;;;3.97;3.07;;;;;;;4.11;96.42;97853.19;5061040;28;20263;-80
2024/01/07 09:23:41;;;;;;;3.60;3.10;;;;;;;4.14;97.21;97858.25;5061689;28;20627;-80
2024/01/07 09:26:08;;;;;;;5.90;3.47;;;;;;;4.14;96.55;97855.63;5060713;28;20236;-79
2024/01/07 09:28:34;;;;;;;4.30;3.37;;;;;;;4.14;96.21;97867.84;5062140;28;20217;-80
2024/01/07 09:31:01;;;;;;;3.47;2.93;;;;;;;4.09;95.71;97865.47;5062585;28;20212;-80
2024/01/07 09:33:29;;;;;;;5.77;3.07;;;;;;;4.12;95.00;97865.34;5061883;28;20718;-80
2024/01/07 09:35:58;;;;;;;5.23;3.13;;;;;;;4.07;94.04;97867.31;5063444;28;20677;-80
2024/01/07 09:38:25;;;;;;;4.37;3.27;;;;;;;4.05;92.74;97858.69;5062260;28;20208;-80
2024/01/07 09:40:53;;;;;;;5.43;3.67;;;;;;;4.01;95.04;97877.19;5062063;28;20300;-80
2024/01/07 09:43:19;;;;;;;5.07;3.57;;;;;;;4.05;95.90;97877.00;5059320;28;20213;-79
2024/01/07 09:45:48;;;;;;;5.57;3.80;;;;;;;3.98;97.36;97886.03;5060298;28;20261;-79
2024/01/07 09:48:15;;;;;;;5.67;3.77;;;;;;;3.92;98.38;97894.16;5060726;28;20337;-80
2024/01/07 09:50:42;;;;;;;6.43;3.60;;;;;;;3.87;100.00;97904.00;5060578;28;20205;-80
2024/01/07 09:53:16;;;;;;;7.23;3.77;;;;;;;3.93;100.00;97903.72;5060820;28;20233;-80
2024/01/07 09:55:52;;;;;;;4.93;3.53;;;;;;;3.97;98.49;97892.19;5060333;28;20215;-82
2024/01/07 09:58:19;;;;;;;5.23;3.53;;;;;;;3.98;97.75;97880.81;5060333;28;20663;-79
2024/01/07 10:00:46;;;;;;;6.30;3.80;;;;;;;3.97;96.57;97871.28;5059342;28;20237;-79
2024/01/07 10:03:12;;;;;;;6.53;4.13;;;;;;;3.91;96.95;97882.00;5058720;28;20234;-79
2024/01/07 10:05:40;;;;;;;4.60;3.63;;;;;;;3.90;95.95;97879.47;5058736;28;20594;-80
2024/01/07 10:08:08;;;;;;;5.77;4.00;;;;;;;3.86;96.48;97888.38;5060791;28;20214;-80
2024/01/07 10:10:36;;;;;;;5.93;3.93;;;;;;;3.86;95.38;97878.75;5062436;28;20209;-80
2024/01/07 10:13:03;;;;;;;5.70;3.83;;;;;;;3.80;93.45;97868.59;5062421;28;20241;-81
2024/01/07 10:15:30;;;;;;;4.90;3.40;;;;;;;3.76;92.94;97851.38;5061103;28;20206;-81
2024/01/07 10:17:57;;;;;;;5.90;3.77;;;;;;;3.70;92.69;97861.25;5062222;28;20213;-81
2024/01/07 10:20:23;;;;;;;4.17;3.30;;;;;;;3.66;93.69;97857.94;5061614;28;20209;-81
2024/01/07 10:22:52;;;;;;;3.83;2.93;;;;;;;3.73;93.99;97872.41;5061801;28;20239;-81
2024/01/07 10:25:20;;;;;;;5.23;3.50;;;;;;;3.77;93.18;97868.75;5061309;28;20236;-81
2024/01/07 10:27:46;;;;;;;4.87;3.57;;;;;;;3.70;92.53;97869.97;5061812;28;20219;-81
2024/01/07 10:30:14;;;;;;;6.40;4.00;;;;;;;3.71;93.20;97873.41;5061840;28;20215;-81
2024/01/07 10:32:43;;;;;;;5.07;3.67;;;;;;;3.66;93.54;97878.84;5060115;28;20237;-80
2024/01/07 10:35:14;;;;;;;8.27;4.17;;;;;;;3.61;94.78;97891.28;5060363;28;20216;-81
2024/01/07 10:37:40;;;;;;;6.40;3.90;;;;;;;3.65;94.33;97886.75;5058434;28;20219;-80
2024/01/07 10:40:08;;;;;;;5.53;3.57;;;;;;;3.63;93.58;97889.47;5060638;28;20213;-81
2024/01/07 10:42:39;;;;;;;5.00;3.67;;;;;;;3.62;93.12;97889.50;5061931;28;20235;-81
2024/01/07 10:45:06;;;;;;;5.70;3.63;;;;;;;3.58;93.82;97885.34;5060870;28;20217;-81
2024/01/07 10:47:35;;;;;;;4.47;3.77;;;;;;;3.57;94.52;97897.56;5062581;28;20205;-81
2024/01/07 10:50:03;;;;;;;6.03;4.03;;;;;;;3.62;93.75;97894.75;5061247;28;20222;-80
2024/01/07 10:52:32;;;;;;;6.00;3.93;;;;;;;3.58;94.61;97898.41;5058664;28;20759;-81
2024/01/07 10:55:09;;;;;;;4.67;2.97;;;;;;;3.63;93.38;97886.84;5062211;28;20212;-80
2024/01/07 10:57:43;;;;;;;6.97;4.07;;;;;;;3.63;93.67;97892.06;5061588;28;20223;-79
2024/01/07 11:00:18;;;;;;;6.33;3.57;;;;;;;3.64;93.90;97893.75;5060136;28;20529;-79
2024/01/07 11:02:52;;;;;;;5.67;3.63;;;;;;;3.60;93.25;97897.41;5060338;28;20237;-79
2024/01/07 11:05:28;;;;;;;5.93;3.80;;;;;;;3.55;94.01;97899.38;5062910;28;20224;-79
2024/01/07 11:08:03;;;;;;;6.03;3.83;;;;;;;3.50;95.85;97913.59;5063044;28;20213;-79
2024/01/07 11:10:38;;;;;;;4.83;3.63;;;;;;;3.53;96.75;97914.28;5063441;28;20215;-79
2024/01/07 11:13:06;;;;;;;5.80;4.03;;;;;;;3.54;97.55;97923.00;5063702;28;20294;-78
2024/01/07 11:15:51;;;;;;;5.83;3.63;;;;;;;3.48;97.11;97913.66;5060337;28;20495;-79
2024/01/07 11:18:18;;;;;;;5.33;3.70;;;;;;;3.50;96.42;97910.97;5062575;28;20274;-79
2024/01/07 11:20:46;;;;;;;6.00;4.17;;;;;;;3.56;95.12;97915.91;5062932;28;20218;-79
2024/01/07 11:23:32;;;;;;;6.13;4.63;;;;;;;3.52;93.40;97894.31;5063835;28;20205;-79
2024/01/07 11:26:00;;;;;;;6.43;4.50;;;;;;;3.50;94.03;97901.38;5066157;28;20361;-81